Time;durP1;ratioP1;P1;durP2;ratioP2;P2;SDS_P1;SDS_P2;PMS_P1;PMS_P2;Temp;Humidity;BMP_temperature;BMP_pressure;BME280_temperature;BME280_humidity;BME280_pressure;Samples;Min_cycle;Max_cycle;Signal;HPM_P1;HPM_P2
2022/09/23 00:00:51;;;;;;;;;;;21.50;38.00;;;;;;486853;245;1096;-61
2022/09/23 00:02:52;;;;;;;;;;;21.70;37.80;;;;;;486835;245;1208;-61
2022/09/23 00:04:53;;;;;;;;;;;21.50;38.10;;;;;;487070;244;2195;-61
2022/09/23 00:06:55;;;;;;;;;;;21.40;38.20;;;;;;486874;245;1120;-61
2022/09/23 00:08:56;;;;;;;;;;;21.40;38.10;;;;;;487178;244;1097;-61
2022/09/23 00:10:57;;;;;;;;;;;21.40;38.20;;;;;;486951;244;1123;-61
2022/09/23 00:12:59;;;;;;;;;;;21.50;38.00;;;;;;486930;244;1248;-61
2022/09/23 00:15:00;;;;;;;;;;;21.50;37.90;;;;;;486843;245;1238;-61
2022/09/23 00:17:02;;;;;;;;;;;21.50;37.90;;;;;;486863;245;1121;-61
2022/09/23 00:19:03;;;;;;;;;;;21.40;38.10;;;;;;486837;245;1171;-61
2022/09/23 00:21:04;;;;;;;;;;;21.40;38.00;;;;;;486924;244;1165;-61
2022/09/23 00:23:06;;;;;;;;;;;21.50;38.00;;;;;;486847;245;1222;-61
2022/09/23 00:25:08;;;;;;;;;;;21.40;38.00;;;;;;486897;244;2190;-61
2022/09/23 00:27:08;;;;;;;;;;;21.50;38.10;;;;;;486881;244;1416;-61
2022/09/23 00:29:10;;;;;;;;;;;21.40;38.00;;;;;;486808;245;1121;-61
2022/09/23 00:31:11;;;;;;;;;;;21.40;38.00;;;;;;486833;245;1212;-61
2022/09/23 00:33:13;;;;;;;;;;;21.40;38.00;;;;;;486867;244;1107;-61
2022/09/23 00:35:14;;;;;;;;;;;21.30;38.20;;;;;;486858;245;1152;-61
2022/09/23 00:37:15;;;;;;;;;;;21.40;38.20;;;;;;487119;244;1166;-61
2022/09/23 00:39:17;;;;;;;;;;;21.40;38.00;;;;;;486859;245;1040;-61
2022/09/23 00:41:18;;;;;;;;;;;21.50;37.80;;;;;;486842;245;1114;-61
2022/09/23 00:43:19;;;;;;;;;;;21.50;37.70;;;;;;487213;244;1100;-61
2022/09/23 00:45:21;;;;;;;;;;;21.50;38.00;;;;;;487187;244;2194;-61
2022/09/23 00:47:22;;;;;;;;;;;21.40;37.90;;;;;;487015;244;1125;-61
2022/09/23 00:49:23;;;;;;;;;;;21.40;38.00;;;;;;486869;245;1090;-61
2022/09/23 00:51:25;;;;;;;;;;;21.40;38.00;;;;;;486845;244;1270;-62
2022/09/23 00:53:26;;;;;;;;;;;21.40;38.00;;;;;;486856;245;1131;-62
2022/09/23 00:55:27;;;;;;;;;;;21.30;38.10;;;;;;486866;244;1175;-61
2022/09/23 00:57:29;;;;;;;;;;;21.40;38.00;;;;;;486887;244;1289;-61
2022/09/23 00:59:30;;;;;;;;;;;21.30;38.10;;;;;;487056;245;1168;-61
2022/09/23 01:01:31;;;;;;;;;;;21.30;38.00;;;;;;486804;245;1195;-61
2022/09/23 01:03:33;;;;;;;;;;;21.40;38.00;;;;;;486803;245;1215;-61
2022/09/23 01:05:35;;;;;;;;;;;21.30;38.10;;;;;;487104;244;2197;-61
2022/09/23 01:07:35;;;;;;;;;;;21.30;38.10;;;;;;486789;245;1412;-61
2022/09/23 01:09:37;;;;;;;;;;;21.30;38.00;;;;;;486928;244;1270;-61
2022/09/23 01:11:38;;;;;;;;;;;21.40;37.80;;;;;;486794;245;1203;-62
2022/09/23 01:13:39;;;;;;;;;;;21.40;37.90;;;;;;486868;244;1223;-61
2022/09/23 01:15:41;;;;;;;;;;;21.30;37.80;;;;;;486818;245;1146;-61
2022/09/23 01:17:42;;;;;;;;;;;21.30;38.00;;;;;;486866;245;1170;-61
2022/09/23 01:19:43;;;;;;;;;;;21.40;37.80;;;;;;486858;245;1037;-61
2022/09/23 01:21:46;;;;;;;;;;;21.40;37.70;;;;;;487007;244;1133;-61
2022/09/23 01:23:46;;;;;;;;;;;21.40;37.60;;;;;;486764;245;1428;-61
2022/09/23 01:25:47;;;;;;;;;;;21.40;37.60;;;;;;486949;244;2185;-61
2022/09/23 01:27:49;;;;;;;;;;;21.60;37.30;;;;;;486825;245;1126;-61
2022/09/23 01:29:50;;;;;;;;;;;21.40;37.60;;;;;;486851;245;1059;-61
2022/09/23 01:31:51;;;;;;;;;;;21.50;37.60;;;;;;486842;245;1242;-61
2022/09/23 01:33:53;;;;;;;;;;;21.50;37.40;;;;;;486858;245;1135;-60
2022/09/23 01:35:54;;;;;;;;;;;21.50;37.50;;;;;;486847;245;1175;-61
2022/09/23 01:37:55;;;;;;;;;;;21.60;37.30;;;;;;487153;244;1169;-61
2022/09/23 01:39:57;;;;;;;;;;;21.50;37.40;;;;;;486821;245;1146;-61
2022/09/23 01:41:58;;;;;;;;;;;21.50;37.40;;;;;;486819;245;1226;-62
2022/09/23 01:43:59;;;;;;;;;;;21.40;37.40;;;;;;486962;244;1338;-61
2022/09/23 01:46:01;;;;;;;;;;;21.40;37.40;;;;;;487059;244;2187;-61
2022/09/23 01:48:02;;;;;;;;;;;21.40;37.50;;;;;;486798;245;1203;-62
2022/09/23 01:50:54;;;;;;;;;;;21.40;37.60;;;;;;486916;244;1169;-61
2022/09/23 01:52:04;;;;;;;;;;;21.50;37.40;;;;;;485262;245;1171;-61
2022/09/23 01:54:06;;;;;;;;;;;21.30;37.60;;;;;;486803;245;1266;-61
2022/09/23 01:56:07;;;;;;;;;;;21.40;37.40;;;;;;486886;244;1250;-61
2022/09/23 01:58:09;;;;;;;;;;;21.50;37.30;;;;;;486803;245;1179;-61
2022/09/23 02:00:10;;;;;;;;;;;21.40;37.40;;;;;;486945;244;1104;-61
2022/09/23 02:02:12;;;;;;;;;;;21.30;37.60;;;;;;486809;245;1099;-61
2022/09/23 02:04:12;;;;;;;;;;;21.30;37.60;;;;;;486725;244;1417;-61
2022/09/23 02:06:14;;;;;;;;;;;21.40;37.50;;;;;;486792;245;2194;-61
2022/09/23 02:08:15;;;;;;;;;;;21.40;37.30;;;;;;486798;245;1206;-61
2022/09/23 02:10:16;;;;;;;;;;;21.40;37.40;;;;;;486805;245;1210;-61
2022/09/23 02:12:19;;;;;;;;;;;21.40;37.10;;;;;;486797;245;1206;-61
2022/09/23 02:14:19;;;;;;;;;;;21.40;37.20;;;;;;486641;245;1473;-61
2022/09/23 02:16:21;;;;;;;;;;;21.50;37.10;;;;;;487046;244;1115;-61
2022/09/23 02:18:22;;;;;;;;;;;21.40;37.00;;;;;;486777;245;1154;-61
2022/09/23 02:20:23;;;;;;;;;;;21.40;37.10;;;;;;486770;245;1175;-61
2022/09/23 02:22:25;;;;;;;;;;;21.40;37.30;;;;;;486774;245;1203;-61
2022/09/23 02:24:26;;;;;;;;;;;21.30;37.30;;;;;;486767;245;1169;-61
2022/09/23 02:26:28;;;;;;;;;;;21.40;37.20;;;;;;486895;244;2194;-61
2022/09/23 02:28:29;;;;;;;;;;;21.50;37.00;;;;;;486925;244;1173;-61
2022/09/23 02:30:31;;;;;;;;;;;21.50;37.00;;;;;;486804;245;1215;-61
2022/09/23 02:32:32;;;;;;;;;;;21.30;37.30;;;;;;487251;244;1112;-61
2022/09/23 02:34:33;;;;;;;;;;;21.30;37.20;;;;;;487209;244;1140;-61
2022/09/23 02:36:35;;;;;;;;;;;21.40;37.10;;;;;;487222;244;1189;-61
2022/09/23 02:38:36;;;;;;;;;;;21.40;37.20;;;;;;486813;245;1256;-61
2022/09/23 02:40:37;;;;;;;;;;;21.30;37.10;;;;;;486976;244;1260;-61
2022/09/23 02:42:39;;;;;;;;;;;21.30;37.20;;;;;;486933;244;1195;-61
2022/09/23 02:44:40;;;;;;;;;;;21.30;37.20;;;;;;486780;245;1274;-61
2022/09/23 02:46:42;;;;;;;;;;;21.30;37.20;;;;;;486781;245;2178;-61
2022/09/23 02:48:43;;;;;;;;;;;21.40;37.10;;;;;;486833;244;1156;-61
2022/09/23 02:50:46;;;;;;;;;;;21.40;36.70;;;;;;486789;245;1137;-61
2022/09/23 02:52:46;;;;;;;;;;;21.50;36.70;;;;;;486752;245;1540;-61
2022/09/23 02:54:47;;;;;;;;;;;21.30;37.00;;;;;;486830;245;1132;-61
2022/09/23 02:56:49;;;;;;;;;;;21.30;36.80;;;;;;486967;244;1139;-61
2022/09/23 02:58:50;;;;;;;;;;;21.40;36.80;;;;;;486821;245;1049;-61
2022/09/23 03:00:52;;;;;;;;;;;21.30;37.00;;;;;;487067;244;1095;-62
2022/09/23 03:02:54;;;;;;;;;;;21.30;36.80;;;;;;486804;245;1496;-61
2022/09/23 03:04:55;;;;;;;;;;;21.40;36.80;;;;;;486981;244;1424;-61
2022/09/23 03:06:55;;;;;;;;;;;21.40;36.70;;;;;;486753;245;2182;-61
2022/09/23 03:08:57;;;;;;;;;;;21.40;36.70;;;;;;486992;244;1183;-61
2022/09/23 03:10:58;;;;;;;;;;;21.40;36.70;;;;;;486886;244;1158;-61
2022/09/23 03:13:00;;;;;;;;;;;21.40;36.70;;;;;;486852;244;1152;-61
2022/09/23 03:15:01;;;;;;;;;;;21.40;36.60;;;;;;486896;244;1471;-61
2022/09/23 03:17:02;;;;;;;;;;;21.40;36.50;;;;;;486860;244;1160;-61
2022/09/23 03:19:04;;;;;;;;;;;21.40;36.70;;;;;;486838;245;1112;-61
2022/09/23 03:21:05;;;;;;;;;;;21.40;36.50;;;;;;486919;244;1135;-61
2022/09/23 03:23:06;;;;;;;;;;;21.40;36.50;;;;;;486857;245;1114;-61
2022/09/23 03:25:08;;;;;;;;;;;21.50;36.40;;;;;;487292;244;1224;-61
2022/09/23 03:27:12;;;;;;;;;;;21.40;36.50;;;;;;486854;245;2198;-61
2022/09/23 03:29:11;;;;;;;;;;;21.40;36.70;;;;;;486800;245;1387;-61
2022/09/23 03:31:12;;;;;;;;;;;21.40;36.50;;;;;;486981;244;1107;-61
2022/09/23 03:33:15;;;;;;;;;;;21.40;36.40;;;;;;486845;245;1073;-61
2022/09/23 03:35:15;;;;;;;;;;;21.40;36.50;;;;;;486784;245;1416;-61
2022/09/23 03:37:16;;;;;;;;;;;21.40;36.40;;;;;;486848;244;1289;-61
2022/09/23 03:39:18;;;;;;;;;;;21.40;36.40;;;;;;486830;245;1225;-61
2022/09/23 03:41:19;;;;;;;;;;;21.40;36.40;;;;;;487081;244;1148;-61
2022/09/23 03:43:20;;;;;;;;;;;21.50;36.30;;;;;;487029;244;1140;-61
2022/09/23 03:45:22;;;;;;;;;;;21.40;36.50;;;;;;487263;244;1130;-61
2022/09/23 03:47:23;;;;;;;;;;;21.40;36.40;;;;;;486836;245;2202;-61
2022/09/23 03:49:26;;;;;;;;;;;21.40;36.60;;;;;;486847;245;1140;-61
2022/09/23 03:51:26;;;;;;;;;;;21.40;36.50;;;;;;486769;245;1457;-61
2022/09/23 03:53:27;;;;;;;;;;;21.40;36.50;;;;;;486844;245;1164;-61
2022/09/23 03:55:28;;;;;;;;;;;21.30;36.50;;;;;;486851;245;1187;-61
2022/09/23 03:57:30;;;;;;;;;;;21.30;36.50;;;;;;487029;244;1295;-61
2022/09/23 03:59:31;;;;;;;;;;;21.30;36.60;;;;;;486829;244;1351;-60
2022/09/23 04:01:32;;;;;;;;;;;21.30;36.60;;;;;;486883;244;1155;-61
2022/09/23 04:03:34;;;;;;;;;;;21.30;36.60;;;;;;486768;245;1133;-61
2022/09/23 04:05:35;;;;;;;;;;;21.30;36.50;;;;;;486925;244;1125;-62
2022/09/23 04:07:37;;;;;;;;;;;21.30;36.50;;;;;;486860;245;2190;-61
2022/09/23 04:09:38;;;;;;;;;;;21.40;36.30;;;;;;486832;245;1336;-61
2022/09/23 04:11:39;;;;;;;;;;;21.30;36.40;;;;;;486822;245;1135;-61
2022/09/23 04:13:41;;;;;;;;;;;21.30;36.50;;;;;;486818;244;1109;-60
2022/09/23 04:15:42;;;;;;;;;;;21.30;36.40;;;;;;486839;245;1174;-64
2022/09/23 04:17:43;;;;;;;;;;;21.40;36.20;;;;;;486990;244;1200;-64
2022/09/23 04:19:45;;;;;;;;;;;21.30;36.30;;;;;;486800;245;1083;-63
2022/09/23 04:21:46;;;;;;;;;;;21.30;36.40;;;;;;486793;245;1215;-63
2022/09/23 04:23:47;;;;;;;;;;;21.40;36.40;;;;;;486765;245;1167;-60
2022/09/23 04:25:49;;;;;;;;;;;21.30;36.60;;;;;;487293;244;1169;-61
2022/09/23 04:27:50;;;;;;;;;;;21.30;36.60;;;;;;486796;245;2158;-61
2022/09/23 04:29:51;;;;;;;;;;;21.30;36.40;;;;;;486940;244;1275;-61
2022/09/23 04:31:52;;;;;;;;;;;21.30;36.40;;;;;;486756;245;1193;-61
2022/09/23 04:33:54;;;;;;;;;;;21.30;36.40;;;;;;486798;245;1144;-61
2022/09/23 04:35:55;;;;;;;;;;;21.40;36.30;;;;;;487023;244;1197;-61
2022/09/23 04:37:56;;;;;;;;;;;21.40;36.40;;;;;;486784;245;1202;-61
2022/09/23 04:39:58;;;;;;;;;;;21.40;36.40;;;;;;486987;244;1172;-61
2022/09/23 04:41:59;;;;;;;;;;;21.40;36.30;;;;;;486817;244;1097;-61
2022/09/23 04:44:00;;;;;;;;;;;21.40;36.40;;;;;;486963;244;1130;-61
2022/09/23 04:46:02;;;;;;;;;;;21.40;36.30;;;;;;486814;244;1139;-61
2022/09/23 04:48:03;;;;;;;;;;;21.40;36.20;;;;;;486879;244;2251;-61
2022/09/23 04:50:04;;;;;;;;;;;21.40;36.20;;;;;;486756;245;1149;-61
2022/09/23 04:52:06;;;;;;;;;;;21.40;36.30;;;;;;486782;245;1253;-61
2022/09/23 04:54:07;;;;;;;;;;;21.40;36.20;;;;;;486834;244;1218;-61
2022/09/23 04:56:09;;;;;;;;;;;21.30;36.60;;;;;;486920;244;1249;-62
2022/09/23 04:58:10;;;;;;;;;;;21.30;36.50;;;;;;486755;244;1187;-61
2022/09/23 05:00:12;;;;;;;;;;;21.30;36.60;;;;;;486853;244;1091;-61
2022/09/23 05:02:13;;;;;;;;;;;21.30;36.40;;;;;;486992;244;1450;-60
2022/09/23 05:04:14;;;;;;;;;;;21.40;36.40;;;;;;486768;245;1089;-61
2022/09/23 05:06:15;;;;;;;;;;;21.30;36.40;;;;;;486858;244;1286;-62
2022/09/23 05:08:17;;;;;;;;;;;21.30;36.50;;;;;;486951;244;2189;-61
2022/09/23 05:10:18;;;;;;;;;;;21.30;36.60;;;;;;486744;245;1232;-61
2022/09/23 05:12:19;;;;;;;;;;;21.20;36.60;;;;;;486748;245;1116;-61
2022/09/23 05:14:21;;;;;;;;;;;21.20;36.60;;;;;;486601;245;1221;-61
2022/09/23 05:16:22;;;;;;;;;;;21.20;36.60;;;;;;486811;245;1099;-61
2022/09/23 05:18:23;;;;;;;;;;;21.20;40.00;;;;;;486769;244;1218;-61
2022/09/23 05:20:25;;;;;;;;;;;21.30;41.00;;;;;;486766;244;1060;-61
2022/09/23 05:22:26;;;;;;;;;;;21.20;40.60;;;;;;486767;245;1141;-61
2022/09/23 05:24:27;;;;;;;;;;;21.20;39.60;;;;;;486785;244;1146;-61
2022/09/23 05:26:29;;;;;;;;;;;21.20;39.20;;;;;;486804;245;2210;-61
2022/09/23 05:28:31;;;;;;;;;;;21.20;39.00;;;;;;487010;244;1310;-61
2022/09/23 05:30:32;;;;;;;;;;;21.30;38.60;;;;;;486679;245;1418;-61
2022/09/23 05:32:33;;;;;;;;;;;21.30;38.50;;;;;;486708;244;2461;-61
2022/09/23 05:34:34;;;;;;;;;;;21.30;38.40;;;;;;486829;244;1153;-60
2022/09/23 05:36:36;;;;;;;;;;;21.30;38.30;;;;;;486920;244;1116;-61
2022/09/23 05:38:37;;;;;;;;;;;21.30;38.10;;;;;;486647;244;1123;-60
2022/09/23 05:40:38;;;;;;;;;;;21.20;38.20;;;;;;486790;244;1110;-60
2022/09/23 05:42:40;;;;;;;;;;;21.20;38.20;;;;;;486797;244;1115;-60
2022/09/23 05:44:41;;;;;;;;;;;21.30;37.80;;;;;;486736;244;1144;-60
2022/09/23 05:46:42;;;;;;;;;;;21.20;37.90;;;;;;486780;244;2179;-60
2022/09/23 05:48:45;;;;;;;;;;;21.20;37.80;;;;;;486757;245;1152;-60
2022/09/23 05:50:46;;;;;;;;;;;21.10;37.90;;;;;;486733;245;1350;-60
2022/09/23 05:52:47;;;;;;;;;;;21.10;38.00;;;;;;486707;245;1236;-61
2022/09/23 05:54:48;;;;;;;;;;;21.10;38.00;;;;;;486709;244;1171;-61
2022/09/23 05:56:50;;;;;;;;;;;21.10;37.70;;;;;;486710;245;1229;-60
2022/09/23 05:58:51;;;;;;;;;;;21.20;37.60;;;;;;486669;245;1165;-60
2022/09/23 06:00:55;;;;;;;;;;;21.20;37.70;;;;;;486683;244;1190;-60
2022/09/23 06:02:54;;;;;;;;;;;21.10;37.70;;;;;;486539;245;1478;-60
2022/09/23 06:04:55;;;;;;;;;;;21.20;37.70;;;;;;486664;244;1134;-60
2022/09/23 06:06:57;;;;;;;;;;;21.10;37.80;;;;;;486638;244;2194;-60
2022/09/23 06:08:58;;;;;;;;;;;21.20;37.70;;;;;;486958;244;1202;-60
2022/09/23 06:11:00;;;;;;;;;;;21.10;37.70;;;;;;486652;244;1156;-61
2022/09/23 06:13:01;;;;;;;;;;;21.10;37.70;;;;;;486654;245;1144;-63
2022/09/23 06:15:02;;;;;;;;;;;20.90;38.00;;;;;;486560;245;1170;-60
2022/09/23 06:17:04;;;;;;;;;;;21.00;37.80;;;;;;486587;244;1236;-60
2022/09/23 06:19:05;;;;;;;;;;;21.10;38.00;;;;;;486773;244;1203;-60
2022/09/23 06:21:06;;;;;;;;;;;21.00;38.10;;;;;;486748;244;1127;-60
2022/09/23 06:23:08;;;;;;;;;;;21.00;38.10;;;;;;486870;244;1173;-61
2022/09/23 06:25:09;;;;;;;;;;;21.10;38.00;;;;;;486655;244;1155;-61
2022/09/23 06:27:10;;;;;;;;;;;21.20;38.00;;;;;;486670;244;2157;-60
2022/09/23 06:29:12;;;;;;;;;;;21.10;38.30;;;;;;486714;244;1134;-63
2022/09/23 06:31:14;;;;;;;;;;;21.20;38.60;;;;;;486618;244;1196;-63
2022/09/23 06:33:14;;;;;;;;;;;21.20;38.60;;;;;;486684;245;1403;-61
2022/09/23 06:35:16;;;;;;;;;;;21.10;38.80;;;;;;486554;245;1156;-61
2022/09/23 06:37:17;;;;;;;;;;;21.20;38.70;;;;;;486561;245;1139;-60
2022/09/23 06:39:18;;;;;;;;;;;21.30;38.60;;;;;;486975;244;1138;-61
2022/09/23 06:41:20;;;;;;;;;;;21.40;38.70;;;;;;486656;244;1152;-60
2022/09/23 06:43:21;;;;;;;;;;;21.30;38.70;;;;;;486590;245;1123;-60
2022/09/23 06:45:23;;;;;;;;;;;21.30;38.80;;;;;;486703;244;1092;-60
2022/09/23 06:47:24;;;;;;;;;;;21.30;38.90;;;;;;486692;245;2146;-60
2022/09/23 06:49:25;;;;;;;;;;;21.30;39.00;;;;;;486622;245;1143;-60
2022/09/23 06:51:26;;;;;;;;;;;21.30;38.90;;;;;;486658;244;1172;-60
2022/09/23 06:53:30;;;;;;;;;;;21.30;39.10;;;;;;486750;244;1194;-60
2022/09/23 06:55:29;;;;;;;;;;;21.30;39.20;;;;;;486572;245;1556;-60
2022/09/23 06:57:30;;;;;;;;;;;21.20;39.20;;;;;;486611;245;1206;-61
2022/09/23 06:59:32;;;;;;;;;;;21.20;39.20;;;;;;486653;244;1181;-60
2022/09/23 07:01:33;;;;;;;;;;;21.30;39.20;;;;;;486616;245;1219;-60
2022/09/23 07:03:35;;;;;;;;;;;21.30;39.30;;;;;;486769;244;1236;-60
2022/09/23 07:05:37;;;;;;;;;;;21.30;39.40;;;;;;486560;244;1149;-61
2022/09/23 07:07:39;;;;;;;;;;;21.30;39.20;;;;;;486561;245;2193;-60
2022/09/23 07:09:40;;;;;;;;;;;21.30;39.50;;;;;;486680;244;1147;-60
2022/09/23 07:11:41;;;;;;;;;;;21.30;39.40;;;;;;486664;245;1121;-60
2022/09/23 07:13:43;;;;;;;;;;;21.10;39.80;;;;;;486568;244;1132;-61
2022/09/23 07:15:44;;;;;;;;;;;21.20;39.80;;;;;;486527;245;1206;-60
2022/09/23 07:17:45;;;;;;;;;;;21.20;39.70;;;;;;486683;244;1160;-60
2022/09/23 07:19:46;;;;;;;;;;;21.30;39.70;;;;;;486633;244;1101;-61
2022/09/23 07:21:48;;;;;;;;;;;21.30;39.40;;;;;;486626;244;1132;-60
2022/09/23 07:23:50;;;;;;;;;;;21.30;39.60;;;;;;486617;244;1250;-61
2022/09/23 07:25:51;;;;;;;;;;;21.40;39.60;;;;;;486316;245;1415;-61
2022/09/23 07:27:52;;;;;;;;;;;21.40;39.70;;;;;;486718;244;2151;-61
2022/09/23 07:29:53;;;;;;;;;;;21.40;39.60;;;;;;486649;244;1139;-60
2022/09/23 07:31:55;;;;;;;;;;;21.40;39.60;;;;;;486531;244;1225;-60
2022/09/23 07:33:56;;;;;;;;;;;21.50;39.60;;;;;;486801;244;1158;-60
2022/09/23 07:35:57;;;;;;;;;;;21.50;39.60;;;;;;486722;244;1157;-60
2022/09/23 07:37:59;;;;;;;;;;;21.50;39.60;;;;;;486760;244;1147;-60
2022/09/23 07:40:00;;;;;;;;;;;21.40;39.70;;;;;;486689;245;1105;-61
2022/09/23 07:42:03;;;;;;;;;;;21.50;39.70;;;;;;486707;244;1096;-60
2022/09/23 07:44:04;;;;;;;;;;;21.40;39.80;;;;;;486570;244;1431;-60
2022/09/23 07:46:04;;;;;;;;;;;21.50;39.70;;;;;;486434;245;1377;-61
2022/09/23 07:48:05;;;;;;;;;;;21.50;39.90;;;;;;486545;244;2199;-60
2022/09/23 07:50:07;;;;;;;;;;;21.40;40.00;;;;;;486557;244;1216;-60
2022/09/23 07:52:08;;;;;;;;;;;21.40;40.20;;;;;;486536;245;1138;-60
2022/09/23 07:54:10;;;;;;;;;;;21.50;40.20;;;;;;486546;244;1295;-61
2022/09/23 07:56:11;;;;;;;;;;;21.50;40.10;;;;;;486438;245;1113;-61
2022/09/23 07:58:12;;;;;;;;;;;21.60;40.10;;;;;;486534;244;1158;-61
2022/09/23 08:00:14;;;;;;;;;;;21.60;40.10;;;;;;486534;245;1169;-61
2022/09/23 08:02:15;;;;;;;;;;;21.60;40.20;;;;;;486501;245;1093;-60
2022/09/23 08:04:17;;;;;;;;;;;21.60;40.30;;;;;;486641;244;1111;-61
2022/09/23 08:06:19;;;;;;;;;;;21.40;40.60;;;;;;486627;244;1279;-61
2022/09/23 08:08:19;;;;;;;;;;;21.60;40.40;;;;;;486452;244;2147;-61
2022/09/23 08:10:21;;;;;;;;;;;21.60;40.60;;;;;;486600;245;1120;-61
2022/09/23 08:12:22;;;;;;;;;;;21.60;40.50;;;;;;486630;244;1221;-60
2022/09/23 08:14:23;;;;;;;;;;;21.70;40.50;;;;;;486539;244;1133;-60
2022/09/23 08:16:25;;;;;;;;;;;21.70;40.50;;;;;;486428;245;1128;-61
2022/09/23 08:18:26;;;;;;;;;;;21.70;40.40;;;;;;486686;244;1137;-60
2022/09/23 08:20:46;;;;;;;;;;;21.60;40.70;;;;;;486582;245;1274;-60
2022/09/23 08:22:47;;;;;;;;;;;21.60;40.90;;;;;;486580;245;1164;-61
2022/09/23 08:24:48;;;;;;;;;;;21.60;40.90;;;;;;486601;244;1145;-61
2022/09/23 08:26:52;;;;;;;;;;;21.70;40.90;;;;;;486555;244;1115;-61
2022/09/23 08:28:53;;;;;;;;;;;21.70;40.80;;;;;;486437;245;2187;-60
2022/09/23 08:30:53;;;;;;;;;;;21.60;41.00;;;;;;486654;244;1367;-61
2022/09/23 08:32:54;;;;;;;;;;;21.70;41.10;;;;;;486564;245;1162;-61
2022/09/23 08:34:56;;;;;;;;;;;21.70;41.10;;;;;;486703;244;1290;-61
2022/09/23 08:36:57;;;;;;;;;;;21.70;41.00;;;;;;486468;244;1366;-60
2022/09/23 08:38:58;;;;;;;;;;;21.70;41.10;;;;;;486642;245;1210;-60
2022/09/23 08:41:00;;;;;;;;;;;21.70;41.00;;;;;;486684;245;1184;-60
2022/09/23 08:43:01;;;;;;;;;;;21.80;41.10;;;;;;486550;244;1165;-60
2022/09/23 08:45:02;;;;;;;;;;;21.70;41.10;;;;;;486549;245;1087;-60
2022/09/23 08:47:04;;;;;;;;;;;21.60;41.40;;;;;;486571;245;1131;-61
2022/09/23 08:49:06;;;;;;;;;;;21.70;41.20;;;;;;486684;244;2210;-61
2022/09/23 08:51:07;;;;;;;;;;;21.70;41.30;;;;;;486597;244;1074;-60
2022/09/23 08:53:08;;;;;;;;;;;21.70;41.50;;;;;;486630;245;1150;-61
2022/09/23 08:55:10;;;;;;;;;;;21.70;41.60;;;;;;486661;244;1222;-61
2022/09/23 08:57:11;;;;;;;;;;;21.60;41.80;;;;;;486541;244;1175;-61
2022/09/23 08:59:13;;;;;;;;;;;21.60;41.60;;;;;;486729;244;1220;-60
2022/09/23 09:01:14;;;;;;;;;;;21.50;41.80;;;;;;486621;244;1404;-60
2022/09/23 09:03:15;;;;;;;;;;;21.60;42.00;;;;;;486556;244;1091;-61
2022/09/23 09:05:17;;;;;;;;;;;21.70;41.80;;;;;;486464;245;1182;-61
2022/09/23 09:07:18;;;;;;;;;;;21.70;41.80;;;;;;486526;244;1138;-61
2022/09/23 09:09:19;;;;;;;;;;;21.60;42.10;;;;;;486505;245;2166;-61
2022/09/23 09:11:22;;;;;;;;;;;21.70;42.00;;;;;;486562;245;1077;-61
2022/09/23 09:13:22;;;;;;;;;;;21.70;41.90;;;;;;486461;245;1489;-60
2022/09/23 09:15:25;;;;;;;;;;;21.70;42.00;;;;;;486660;245;1279;-60
2022/09/23 09:17:24;;;;;;;;;;;21.60;41.90;;;;;;486483;245;1427;-60
2022/09/23 09:19:26;;;;;;;;;;;21.60;42.00;;;;;;486676;244;1153;-60
2022/09/23 09:21:27;;;;;;;;;;;21.80;41.70;;;;;;486674;244;1409;-60
2022/09/23 09:23:28;;;;;;;;;;;21.70;41.80;;;;;;486786;244;1146;-60
2022/09/23 09:25:30;;;;;;;;;;;21.70;42.00;;;;;;486631;244;1120;-60
2022/09/23 09:27:31;;;;;;;;;;;21.70;42.10;;;;;;486513;245;1165;-60
2022/09/23 09:29:32;;;;;;;;;;;21.70;42.20;;;;;;486630;245;2210;-61
2022/09/23 09:31:34;;;;;;;;;;;21.80;41.70;;;;;;486599;244;1188;-60
2022/09/23 09:33:35;;;;;;;;;;;21.80;41.80;;;;;;486493;245;1392;-60
2022/09/23 09:35:36;;;;;;;;;;;21.70;42.00;;;;;;486594;244;1098;-61
2022/09/23 09:37:38;;;;;;;;;;;21.70;42.00;;;;;;486526;245;1190;-60
2022/09/23 09:39:39;;;;;;;;;;;21.80;41.80;;;;;;486559;245;1143;-60
2022/09/23 09:41:40;;;;;;;;;;;21.70;42.00;;;;;;486547;245;1202;-61
2022/09/23 09:43:42;;;;;;;;;;;21.70;42.00;;;;;;486707;244;1138;-60
2022/09/23 09:45:43;;;;;;;;;;;21.70;42.00;;;;;;486586;245;1298;-61
2022/09/23 09:47:45;;;;;;;;;;;21.80;42.00;;;;;;486353;244;1131;-60
2022/09/23 09:49:46;;;;;;;;;;;21.90;41.80;;;;;;486565;244;2174;-61
2022/09/23 09:51:47;;;;;;;;;;;21.80;41.80;;;;;;486587;245;1158;-61
2022/09/23 09:53:50;;;;;;;;;;;21.90;41.80;;;;;;486459;244;1129;-60
2022/09/23 09:55:51;;;;;;;;;;;21.90;41.60;;;;;;486365;245;1427;-61
2022/09/23 09:57:52;;;;;;;;;;;22.00;41.80;;;;;;486490;245;1315;-61
2022/09/23 09:59:53;;;;;;;;;;;21.90;41.70;;;;;;486431;244;1496;-61
2022/09/23 10:01:55;;;;;;;;;;;21.80;41.60;;;;;;486558;244;1144;-61
2022/09/23 10:03:56;;;;;;;;;;;21.70;41.90;;;;;;486609;244;1228;-61
2022/09/23 10:05:57;;;;;;;;;;;21.80;42.00;;;;;;486607;244;1109;-61
2022/09/23 10:07:58;;;;;;;;;;;21.90;42.00;;;;;;486627;244;2186;-62
2022/09/23 10:10:00;;;;;;;;;;;21.90;41.90;;;;;;486534;245;1119;-60
2022/09/23 10:12:01;;;;;;;;;;;21.90;41.80;;;;;;486645;244;1177;-61
2022/09/23 10:14:03;;;;;;;;;;;21.90;41.60;;;;;;486611;245;1269;-61
2022/09/23 10:16:04;;;;;;;;;;;22.00;41.80;;;;;;486718;244;1100;-60
2022/09/23 10:18:05;;;;;;;;;;;22.00;41.60;;;;;;486602;245;1189;-61
2022/09/23 10:20:07;;;;;;;;;;;22.10;41.50;;;;;;486688;245;1152;-60
2022/09/23 10:22:08;;;;;;;;;;;22.10;41.50;;;;;;486656;244;1226;-61
2022/09/23 10:24:09;;;;;;;;;;;22.00;41.80;;;;;;486671;244;1112;-61
2022/09/23 10:26:11;;;;;;;;;;;21.90;41.90;;;;;;486527;245;1112;-61
2022/09/23 10:28:12;;;;;;;;;;;21.80;42.20;;;;;;486612;244;2198;-60
2022/09/23 10:30:13;;;;;;;;;;;21.90;42.10;;;;;;486642;244;1147;-61
2022/09/23 10:32:14;;;;;;;;;;;22.00;42.00;;;;;;486613;245;1396;-61
2022/09/23 10:34:17;;;;;;;;;;;21.90;42.20;;;;;;486637;244;1167;-73
2022/09/23 10:36:17;;;;;;;;;;;21.90;42.40;;;;;;486496;245;1322;-73
2022/09/23 10:38:18;;;;;;;;;;;22.10;41.90;;;;;;486549;244;1144;-73
2022/09/23 10:47:29;;;;;;;;;;;22.40;41.20;;;;;;486524;245;1159;-74
2022/09/23 10:49:30;;;;;;;;;;;22.50;41.20;;;;;;486579;244;2182;-74
2022/09/23 10:51:32;;;;;;;;;;;22.50;41.20;;;;;;486643;244;1165;-74
2022/09/23 10:53:33;;;;;;;;;;;22.40;41.20;;;;;;486577;245;1147;-74
2022/09/23 10:55:34;;;;;;;;;;;22.40;41.20;;;;;;486553;244;1177;-74
2022/09/23 10:57:40;;;;;;;;;;;22.40;41.40;;;;;;486366;245;1367;-74
2022/09/23 10:59:42;;;;;;;;;;;22.40;41.70;;;;;;486356;245;1100;-74
2022/09/23 11:01:42;;;;;;;;;;;22.40;41.50;;;;;;486401;245;1404;-74
2022/09/23 11:03:44;;;;;;;;;;;22.30;41.50;;;;;;486648;245;1154;-74
2022/09/23 11:05:45;;;;;;;;;;;22.40;41.50;;;;;;486691;245;1193;-74
2022/09/23 11:07:46;;;;;;;;;;;22.40;41.40;;;;;;486450;245;1193;-74
2022/09/23 11:09:48;;;;;;;;;;;22.30;41.60;;;;;;486621;244;2151;-74
2022/09/23 11:11:49;;;;;;;;;;;22.30;41.70;;;;;;486739;245;1119;-74
2022/09/23 11:13:51;;;;;;;;;;;22.30;41.80;;;;;;486680;245;1485;-74
2022/09/23 11:15:52;;;;;;;;;;;22.30;41.90;;;;;;486544;244;1438;-74
2022/09/23 11:17:53;;;;;;;;;;;22.30;42.00;;;;;;486750;244;1203;-74
2022/09/23 11:19:55;;;;;;;;;;;22.30;41.90;;;;;;486621;245;1516;-74
2022/09/23 11:21:57;;;;;;;;;;;22.30;41.90;;;;;;486529;245;1238;-74
2022/09/23 11:23:58;;;;;;;;;;;22.30;42.00;;;;;;486770;245;1232;-74
2022/09/23 11:25:59;;;;;;;;;;;22.20;42.00;;;;;;486560;245;1389;-74
2022/09/23 11:28:00;;;;;;;;;;;22.20;42.20;;;;;;486658;245;1159;-75
2022/09/23 11:30:02;;;;;;;;;;;22.10;42.20;;;;;;486700;244;2130;-74
2022/09/23 11:32:03;;;;;;;;;;;22.10;42.40;;;;;;486742;244;1148;-74
2022/09/23 11:34:05;;;;;;;;;;;22.10;42.50;;;;;;486625;245;1158;-74
2022/09/23 11:36:06;;;;;;;;;;;22.10;42.50;;;;;;486589;244;1257;-74
2022/09/23 11:38:07;;;;;;;;;;;22.10;42.50;;;;;;486793;244;1184;-74
2022/09/23 11:40:09;;;;;;;;;;;22.10;42.50;;;;;;486761;244;1129;-74
2022/09/23 11:42:11;;;;;;;;;;;22.10;42.50;;;;;;486698;244;1212;-74
2022/09/23 11:44:12;;;;;;;;;;;22.10;42.40;;;;;;486514;245;1410;-74
2022/09/23 11:46:13;;;;;;;;;;;22.10;42.40;;;;;;486679;245;1144;-74
2022/09/23 11:48:14;;;;;;;;;;;22.10;42.60;;;;;;486716;244;1117;-74
2022/09/23 11:50:15;;;;;;;;;;;22.20;42.50;;;;;;486575;244;2155;-74
2022/09/23 11:52:18;;;;;;;;;;;22.10;42.30;;;;;;486501;244;1192;-74
2022/09/23 11:54:19;;;;;;;;;;;22.10;42.50;;;;;;486693;244;1392;-74
2022/09/23 11:56:20;;;;;;;;;;;22.20;42.40;;;;;;486660;245;1511;-74
2022/09/23 11:58:21;;;;;;;;;;;22.10;42.30;;;;;;486843;244;1304;-74
2022/09/23 12:00:22;;;;;;;;;;;22.10;42.30;;;;;;486624;245;1075;-74
2022/09/23 12:02:25;;;;;;;;;;;22.10;42.20;;;;;;486667;244;1113;-74
2022/09/23 12:04:25;;;;;;;;;;;22.10;42.40;;;;;;486460;245;1206;-74